sensor_id;sensor_type;location;lat;lon;timestamp;temperature;humidity
35129;DHT22;21301;43.626;10.580;2023-04-24T00:00:20;16.00;99.90
35129;DHT22;21301;43.626;10.580;2023-04-24T00:02:46;16.10;99.90
35129;DHT22;21301;43.626;10.580;2023-04-24T00:05:16;16.00;99.90
35129;DHT22;21301;43.626;10.580;2023-04-24T00:07:44;16.00;99.90
35129;DHT22;21301;43.626;10.580;2023-04-24T00:10:11;16.00;99.90
35129;DHT22;21301;43.626;10.580;2023-04-24T00:12:37;16.00;99.90
35129;DHT22;21301;43.626;10.580;2023-04-24T00:15:04;16.10;99.90
35129;DHT22;21301;43.626;10.580;2023-04-24T00:17:30;16.10;99.90
35129;DHT22;21301;43.626;10.580;2023-04-24T00:19:56;16.10;99.90
35129;DHT22;21301;43.626;10.580;2023-04-24T00:22:28;16.10;99.90
35129;DHT22;21301;43.626;10.580;2023-04-24T00:24:54;16.20;99.90
35129;DHT22;21301;43.626;10.580;2023-04-24T00:27:20;16.20;99.90
35129;DHT22;21301;43.626;10.580;2023-04-24T00:29:46;16.20;99.90
35129;DHT22;21301;43.626;10.580;2023-04-24T00:32:13;16.20;99.90
35129;DHT22;21301;43.626;10.580;2023-04-24T00:34:39;16.30;99.90
35129;DHT22;21301;43.626;10.580;2023-04-24T00:37:06;16.20;99.90
35129;DHT22;21301;43.626;10.580;2023-04-24T00:39:32;16.30;99.90
35129;DHT22;21301;43.626;10.580;2023-04-24T00:41:58;16.40;99.90
35129;DHT22;21301;43.626;10.580;2023-04-24T00:44:24;16.50;99.90
35129;DHT22;21301;43.626;10.580;2023-04-24T00:46:50;16.50;99.90
35129;DHT22;21301;43.626;10.580;2023-04-24T00:49:21;16.50;99.90
35129;DHT22;21301;43.626;10.580;2023-04-24T00:51:50;16.50;99.90
35129;DHT22;21301;43.626;10.580;2023-04-24T00:54:17;16.50;99.90
35129;DHT22;21301;43.626;10.580;2023-04-24T00:56:44;16.50;99.90
35129;DHT22;21301;43.626;10.580;2023-04-24T00:59:12;16.60;99.90
35129;DHT22;21301;43.626;10.580;2023-04-24T01:01:39;16.60;99.90
35129;DHT22;21301;43.626;10.580;2023-04-24T01:04:11;16.80;99.90
35129;DHT22;21301;43.626;10.580;2023-04-24T01:06:39;16.70;99.90
35129;DHT22;21301;43.626;10.580;2023-04-24T01:09:06;16.70;99.90
35129;DHT22;21301;43.626;10.580;2023-04-24T01:11:34;16.80;99.90
35129;DHT22;21301;43.626;10.580;2023-04-24T01:13:59;16.70;99.90
35129;DHT22;21301;43.626;10.580;2023-04-24T01:16:26;16.70;99.90
35129;DHT22;21301;43.626;10.580;2023-04-24T01:18:53;16.60;99.90
35129;DHT22;21301;43.626;10.580;2023-04-24T01:21:21;16.70;99.90
35129;DHT22;21301;43.626;10.580;2023-04-24T01:23:47;16.70;99.90
35129;DHT22;21301;43.626;10.580;2023-04-24T01:26:18;16.80;99.90
35129;DHT22;21301;43.626;10.580;2023-04-24T01:28:46;16.80;99.90
35129;DHT22;21301;43.626;10.580;2023-04-24T01:31:12;16.80;99.90
35129;DHT22;21301;43.626;10.580;2023-04-24T01:33:38;16.70;99.90
35129;DHT22;21301;43.626;10.580;2023-04-24T01:36:04;16.60;99.90
35129;DHT22;21301;43.626;10.580;2023-04-24T01:38:31;16.50;99.90
35129;DHT22;21301;43.626;10.580;2023-04-24T01:40:59;16.50;99.90
35129;DHT22;21301;43.626;10.580;2023-04-24T01:43:25;16.40;99.90
35129;DHT22;21301;43.626;10.580;2023-04-24T01:45:51;16.30;99.90
35129;DHT22;21301;43.626;10.580;2023-04-24T01:48:17;16.20;99.90
35129;DHT22;21301;43.626;10.580;2023-04-24T01:50:43;16.00;99.90
35129;DHT22;21301;43.626;10.580;2023-04-24T01:53:11;16.00;99.90
35129;DHT22;21301;43.626;10.580;2023-04-24T01:55:37;16.00;99.90
35129;DHT22;21301;43.626;10.580;2023-04-24T01:58:03;16.00;99.90
35129;DHT22;21301;43.626;10.580;2023-04-24T02:00:29;16.00;99.90
35129;DHT22;21301;43.626;10.580;2023-04-24T02:02:55;16.10;99.90
35129;DHT22;21301;43.626;10.580;2023-04-24T02:05:21;16.20;99.90
35129;DHT22;21301;43.626;10.580;2023-04-24T02:07:47;16.20;99.90
35129;DHT22;21301;43.626;10.580;2023-04-24T02:10:13;16.10;99.90
35129;DHT22;21301;43.626;10.580;2023-04-24T02:12:41;16.00;99.90
35129;DHT22;21301;43.626;10.580;2023-04-24T02:15:08;16.00;99.90
35129;DHT22;21301;43.626;10.580;2023-04-24T02:17:36;16.00;99.90
35129;DHT22;21301;43.626;10.580;2023-04-24T02:20:04;16.10;99.90
35129;DHT22;21301;43.626;10.580;2023-04-24T02:22:30;16.00;99.90
35129;DHT22;21301;43.626;10.580;2023-04-24T02:24:56;16.10;99.90
35129;DHT22;21301;43.626;10.580;2023-04-24T02:27:22;16.20;99.90
35129;DHT22;21301;43.626;10.580;2023-04-24T02:29:48;16.10;99.90
35129;DHT22;21301;43.626;10.580;2023-04-24T02:32:14;16.10;99.90
35129;DHT22;21301;43.626;10.580;2023-04-24T02:34:42;16.10;99.90
35129;DHT22;21301;43.626;10.580;2023-04-24T02:37:08;16.10;99.90
35129;DHT22;21301;43.626;10.580;2023-04-24T02:39:35;16.20;99.90
35129;DHT22;21301;43.626;10.580;2023-04-24T02:42:01;16.30;99.90
35129;DHT22;21301;43.626;10.580;2023-04-24T02:44:27;16.40;99.90
35129;DHT22;21301;43.626;10.580;2023-04-24T02:46:53;16.50;99.90
35129;DHT22;21301;43.626;10.580;2023-04-24T02:49:19;16.60;99.90
35129;DHT22;21301;43.626;10.580;2023-04-24T02:51:44;16.60;99.90
35129;DHT22;21301;43.626;10.580;2023-04-24T02:54:10;16.50;99.90
35129;DHT22;21301;43.626;10.580;2023-04-24T02:56:36;16.50;99.90
35129;DHT22;21301;43.626;10.580;2023-04-24T02:59:04;16.40;99.90
35129;DHT22;21301;43.626;10.580;2023-04-24T03:04:46;16.10;99.90
35129;DHT22;21301;43.626;10.580;2023-04-24T03:07:14;15.90;99.90
35129;DHT22;21301;43.626;10.580;2023-04-24T03:09:40;15.90;99.90
35129;DHT22;21301;43.626;10.580;2023-04-24T03:12:06;16.00;99.90
35129;DHT22;21301;43.626;10.580;2023-04-24T03:14:32;16.00;99.90
35129;DHT22;21301;43.626;10.580;2023-04-24T03:16:58;16.20;99.90
35129;DHT22;21301;43.626;10.580;2023-04-24T03:19:24;16.00;99.90
35129;DHT22;21301;43.626;10.580;2023-04-24T03:22:10;15.90;99.90
35129;DHT22;21301;43.626;10.580;2023-04-24T03:24:37;15.80;99.90
35129;DHT22;21301;43.626;10.580;2023-04-24T03:27:04;15.70;99.90
35129;DHT22;21301;43.626;10.580;2023-04-24T03:29:48;15.60;99.90
35129;DHT22;21301;43.626;10.580;2023-04-24T03:32:17;15.50;99.90
35129;DHT22;21301;43.626;10.580;2023-04-24T03:34:46;15.40;99.90
35129;DHT22;21301;43.626;10.580;2023-04-24T03:37:14;15.50;99.90
35129;DHT22;21301;43.626;10.580;2023-04-24T03:39:45;15.60;99.90
35129;DHT22;21301;43.626;10.580;2023-04-24T03:42:13;15.70;99.90
35129;DHT22;21301;43.626;10.580;2023-04-24T03:44:48;15.80;99.90
35129;DHT22;21301;43.626;10.580;2023-04-24T03:47:15;15.80;99.90
35129;DHT22;21301;43.626;10.580;2023-04-24T03:49:41;16.00;99.90
35129;DHT22;21301;43.626;10.580;2023-04-24T03:52:08;16.10;99.90
35129;DHT22;21301;43.626;10.580;2023-04-24T03:54:35;16.10;99.90
35129;DHT22;21301;43.626;10.580;2023-04-24T03:57:01;16.30;99.90
35129;DHT22;21301;43.626;10.580;2023-04-24T03:59:29;16.20;99.90
35129;DHT22;21301;43.626;10.580;2023-04-24T04:02:08;16.00;99.90
35129;DHT22;21301;43.626;10.580;2023-04-24T04:04:34;15.80;99.90
35129;DHT22;21301;43.626;10.580;2023-04-24T04:07:00;15.70;99.90
35129;DHT22;21301;43.626;10.580;2023-04-24T04:09:30;15.60;99.90
35129;DHT22;21301;43.626;10.580;2023-04-24T04:11:55;15.50;99.90
35129;DHT22;21301;43.626;10.580;2023-04-24T04:14:22;15.50;99.90
35129;DHT22;21301;43.626;10.580;2023-04-24T04:16:49;15.50;99.90
35129;DHT22;21301;43.626;10.580;2023-04-24T04:19:15;15.60;99.90
35129;DHT22;21301;43.626;10.580;2023-04-24T04:21:41;15.70;99.90
35129;DHT22;21301;43.626;10.580;2023-04-24T04:24:39;15.70;99.90
35129;DHT22;21301;43.626;10.580;2023-04-24T04:27:06;15.70;99.90
35129;DHT22;21301;43.626;10.580;2023-04-24T04:29:41;15.60;99.90
35129;DHT22;21301;43.626;10.580;2023-04-24T04:32:10;15.50;99.90
35129;DHT22;21301;43.626;10.580;2023-04-24T04:34:36;15.50;99.90
35129;DHT22;21301;43.626;10.580;2023-04-24T04:37:03;15.50;99.90
35129;DHT22;21301;43.626;10.580;2023-04-24T04:39:48;15.70;99.90
35129;DHT22;21301;43.626;10.580;2023-04-24T04:42:20;15.80;99.90
35129;DHT22;21301;43.626;10.580;2023-04-24T04:44:46;15.80;99.90
35129;DHT22;21301;43.626;10.580;2023-04-24T04:47:17;15.80;99.90
35129;DHT22;21301;43.626;10.580;2023-04-24T04:49:44;15.80;99.90
35129;DHT22;21301;43.626;10.580;2023-04-24T04:52:17;15.70;99.90
35129;DHT22;21301;43.626;10.580;2023-04-24T04:54:46;15.70;99.90
35129;DHT22;21301;43.626;10.580;2023-04-24T04:57:12;15.80;99.90
35129;DHT22;21301;43.626;10.580;2023-04-24T04:59:40;15.70;99.90
35129;DHT22;21301;43.626;10.580;2023-04-24T05:02:12;15.80;99.90
35129;DHT22;21301;43.626;10.580;2023-04-24T05:04:38;15.70;99.90
35129;DHT22;21301;43.626;10.580;2023-04-24T05:07:04;15.70;99.90
35129;DHT22;21301;43.626;10.580;2023-04-24T05:09:32;15.70;99.90
35129;DHT22;21301;43.626;10.580;2023-04-24T05:12:04;15.70;99.90
35129;DHT22;21301;43.626;10.580;2023-04-24T05:14:35;15.70;99.90
35129;DHT22;21301;43.626;10.580;2023-04-24T05:17:02;15.80;99.90
35129;DHT22;21301;43.626;10.580;2023-04-24T05:19:29;15.70;99.90
35129;DHT22;21301;43.626;10.580;2023-04-24T05:21:55;15.70;99.90
35129;DHT22;21301;43.626;10.580;2023-04-24T05:24:21;15.70;99.90
35129;DHT22;21301;43.626;10.580;2023-04-24T05:27:20;15.70;99.90
35129;DHT22;21301;43.626;10.580;2023-04-24T05:29:48;15.60;99.90
35129;DHT22;21301;43.626;10.580;2023-04-24T05:32:14;15.60;99.90
35129;DHT22;21301;43.626;10.580;2023-04-24T05:34:40;15.70;99.90
35129;DHT22;21301;43.626;10.580;2023-04-24T05:37:06;15.80;99.90
35129;DHT22;21301;43.626;10.580;2023-04-24T05:39:34;15.90;99.90
35129;DHT22;21301;43.626;10.580;2023-04-24T05:42:01;16.00;99.90
35129;DHT22;21301;43.626;10.580;2023-04-24T05:44:27;16.10;99.90
35129;DHT22;21301;43.626;10.580;2023-04-24T05:46:53;16.20;99.90
35129;DHT22;21301;43.626;10.580;2023-04-24T05:49:21;16.20;99.90
35129;DHT22;21301;43.626;10.580;2023-04-24T05:51:48;16.20;99.90
35129;DHT22;21301;43.626;10.580;2023-04-24T05:54:16;16.40;99.90
35129;DHT22;21301;43.626;10.580;2023-04-24T05:56:42;16.60;99.90
35129;DHT22;21301;43.626;10.580;2023-04-24T05:59:09;16.90;99.90
35129;DHT22;21301;43.626;10.580;2023-04-24T06:01:35;17.10;99.90
35129;DHT22;21301;43.626;10.580;2023-04-24T06:04:10;17.20;99.90
35129;DHT22;21301;43.626;10.580;2023-04-24T06:06:36;17.20;99.90
35129;DHT22;21301;43.626;10.580;2023-04-24T06:09:03;17.30;99.90
35129;DHT22;21301;43.626;10.580;2023-04-24T06:11:29;17.50;99.90
35129;DHT22;21301;43.626;10.580;2023-04-24T06:13:55;17.20;99.90
35129;DHT22;21301;43.626;10.580;2023-04-24T06:16:36;17.10;99.90
35129;DHT22;21301;43.626;10.580;2023-04-24T06:19:10;16.80;99.90
35129;DHT22;21301;43.626;10.580;2023-04-24T06:21:36;16.70;99.90
35129;DHT22;21301;43.626;10.580;2023-04-24T06:24:02;16.50;99.90
35129;DHT22;21301;43.626;10.580;2023-04-24T06:26:30;16.60;99.90
35129;DHT22;21301;43.626;10.580;2023-04-24T06:28:56;16.50;99.90
35129;DHT22;21301;43.626;10.580;2023-04-24T06:31:24;16.50;99.90
35129;DHT22;21301;43.626;10.580;2023-04-24T06:33:50;16.50;99.90
35129;DHT22;21301;43.626;10.580;2023-04-24T06:36:16;16.50;99.90
35129;DHT22;21301;43.626;10.580;2023-04-24T06:38:42;16.40;99.90
35129;DHT22;21301;43.626;10.580;2023-04-24T06:41:09;16.40;99.90
35129;DHT22;21301;43.626;10.580;2023-04-24T06:43:35;16.40;99.90
35129;DHT22;21301;43.626;10.580;2023-04-24T06:46:01;16.30;99.90
35129;DHT22;21301;43.626;10.580;2023-04-24T06:48:29;16.20;99.90
35129;DHT22;21301;43.626;10.580;2023-04-24T06:50:55;16.20;99.90
35129;DHT22;21301;43.626;10.580;2023-04-24T06:53:20;16.10;99.90
35129;DHT22;21301;43.626;10.580;2023-04-24T06:55:46;16.10;99.90
35129;DHT22;21301;43.626;10.580;2023-04-24T06:58:12;16.20;99.90
35129;DHT22;21301;43.626;10.580;2023-04-24T07:00:38;16.50;99.90
35129;DHT22;21301;43.626;10.580;2023-04-24T07:03:04;17.10;99.90
35129;DHT22;21301;43.626;10.580;2023-04-24T07:05:33;17.50;99.90
35129;DHT22;21301;43.626;10.580;2023-04-24T07:08:03;17.60;99.90
35129;DHT22;21301;43.626;10.580;2023-04-24T07:10:29;18.00;99.90
35129;DHT22;21301;43.626;10.580;2023-04-24T07:12:56;18.20;99.90
35129;DHT22;21301;43.626;10.580;2023-04-24T07:15:22;18.20;99.90
35129;DHT22;21301;43.626;10.580;2023-04-24T07:17:49;17.80;99.90
35129;DHT22;21301;43.626;10.580;2023-04-24T07:20:15;17.20;99.90
35129;DHT22;21301;43.626;10.580;2023-04-24T07:22:41;17.30;99.90
35129;DHT22;21301;43.626;10.580;2023-04-24T07:25:07;17.20;99.90
35129;DHT22;21301;43.626;10.580;2023-04-24T07:27:34;17.20;99.90
35129;DHT22;21301;43.626;10.580;2023-04-24T07:30:02;17.20;99.90
35129;DHT22;21301;43.626;10.580;2023-04-24T07:32:28;17.10;99.90
35129;DHT22;21301;43.626;10.580;2023-04-24T07:34:54;17.10;99.90
35129;DHT22;21301;43.626;10.580;2023-04-24T07:37:20;16.90;99.90
35129;DHT22;21301;43.626;10.580;2023-04-24T07:39:46;17.00;99.90
35129;DHT22;21301;43.626;10.580;2023-04-24T07:42:12;17.00;99.90
35129;DHT22;21301;43.626;10.580;2023-04-24T07:44:38;16.90;99.90
35129;DHT22;21301;43.626;10.580;2023-04-24T07:47:04;16.80;99.90
35129;DHT22;21301;43.626;10.580;2023-04-24T07:49:30;16.80;99.90
35129;DHT22;21301;43.626;10.580;2023-04-24T07:51:56;16.80;99.90
35129;DHT22;21301;43.626;10.580;2023-04-24T07:54:21;16.80;99.90
35129;DHT22;21301;43.626;10.580;2023-04-24T07:56:48;16.90;99.90
35129;DHT22;21301;43.626;10.580;2023-04-24T07:59:14;16.90;99.90
35129;DHT22;21301;43.626;10.580;2023-04-24T08:01:40;16.80;99.90
35129;DHT22;21301;43.626;10.580;2023-04-24T08:04:05;16.50;99.90
35129;DHT22;21301;43.626;10.580;2023-04-24T08:06:32;16.50;99.90
35129;DHT22;21301;43.626;10.580;2023-04-24T08:08:59;16.50;99.90
35129;DHT22;21301;43.626;10.580;2023-04-24T08:11:25;16.50;99.90
35129;DHT22;21301;43.626;10.580;2023-04-24T08:13:51;17.00;99.90
35129;DHT22;21301;43.626;10.580;2023-04-24T08:16:17;17.70;99.90
35129;DHT22;21301;43.626;10.580;2023-04-24T08:18:43;18.20;99.90
35129;DHT22;21301;43.626;10.580;2023-04-24T08:21:09;18.50;99.90
35129;DHT22;21301;43.626;10.580;2023-04-24T08:23:35;18.70;99.90
35129;DHT22;21301;43.626;10.580;2023-04-24T08:26:00;18.80;99.90
35129;DHT22;21301;43.626;10.580;2023-04-24T08:28:26;18.70;99.90
35129;DHT22;21301;43.626;10.580;2023-04-24T08:30:52;18.40;99.90
35129;DHT22;21301;43.626;10.580;2023-04-24T08:33:23;18.10;99.90
35129;DHT22;21301;43.626;10.580;2023-04-24T08:35:49;18.20;99.90
35129;DHT22;21301;43.626;10.580;2023-04-24T08:38:16;18.80;99.90
35129;DHT22;21301;43.626;10.580;2023-04-24T08:40:42;19.20;99.90
35129;DHT22;21301;43.626;10.580;2023-04-24T08:43:09;19.10;99.90
35129;DHT22;21301;43.626;10.580;2023-04-24T08:45:36;18.70;99.90
35129;DHT22;21301;43.626;10.580;2023-04-24T08:48:02;18.20;99.90
35129;DHT22;21301;43.626;10.580;2023-04-24T08:50:30;18.10;99.90
35129;DHT22;21301;43.626;10.580;2023-04-24T08:52:57;18.10;99.90
35129;DHT22;21301;43.626;10.580;2023-04-24T08:55:24;17.90;99.90
35129;DHT22;21301;43.626;10.580;2023-04-24T08:57:52;17.90;99.90
35129;DHT22;21301;43.626;10.580;2023-04-24T09:00:20;17.60;99.90
35129;DHT22;21301;43.626;10.580;2023-04-24T09:02:49;17.60;99.90
35129;DHT22;21301;43.626;10.580;2023-04-24T09:05:17;17.70;99.90
35129;DHT22;21301;43.626;10.580;2023-04-24T09:07:45;17.60;99.90
35129;DHT22;21301;43.626;10.580;2023-04-24T09:10:15;17.40;99.90
35129;DHT22;21301;43.626;10.580;2023-04-24T09:12:41;17.30;99.90
35129;DHT22;21301;43.626;10.580;2023-04-24T09:15:08;17.30;99.90
35129;DHT22;21301;43.626;10.580;2023-04-24T09:17:34;17.30;99.90
35129;DHT22;21301;43.626;10.580;2023-04-24T09:20:01;17.40;99.90
35129;DHT22;21301;43.626;10.580;2023-04-24T09:22:30;17.40;99.90
35129;DHT22;21301;43.626;10.580;2023-04-24T09:25:07;17.40;99.90
35129;DHT22;21301;43.626;10.580;2023-04-24T09:27:34;17.80;99.90
35129;DHT22;21301;43.626;10.580;2023-04-24T09:30:01;17.80;99.90
35129;DHT22;21301;43.626;10.580;2023-04-24T09:32:27;17.80;99.90
35129;DHT22;21301;43.626;10.580;2023-04-24T09:37:36;17.50;99.90
35129;DHT22;21301;43.626;10.580;2023-04-24T09:42:51;17.40;99.90
35129;DHT22;21301;43.626;10.580;2023-04-24T09:45:17;17.60;99.90
35129;DHT22;21301;43.626;10.580;2023-04-24T09:47:43;17.70;99.90
35129;DHT22;21301;43.626;10.580;2023-04-24T09:50:10;18.00;99.90
35129;DHT22;21301;43.626;10.580;2023-04-24T09:52:40;18.30;99.90
35129;DHT22;21301;43.626;10.580;2023-04-24T09:55:18;18.40;99.90
35129;DHT22;21301;43.626;10.580;2023-04-24T09:57:52;18.30;99.90
35129;DHT22;21301;43.626;10.580;2023-04-24T10:00:24;18.40;99.90
35129;DHT22;21301;43.626;10.580;2023-04-24T10:03:00;18.40;99.90
35129;DHT22;21301;43.626;10.580;2023-04-24T10:05:29;18.20;99.90
35129;DHT22;21301;43.626;10.580;2023-04-24T10:08:02;18.30;99.90
35129;DHT22;21301;43.626;10.580;2023-04-24T10:10:30;18.70;99.90
35129;DHT22;21301;43.626;10.580;2023-04-24T10:12:56;18.70;99.90
35129;DHT22;21301;43.626;10.580;2023-04-24T10:15:22;18.60;99.90
35129;DHT22;21301;43.626;10.580;2023-04-24T10:17:50;18.40;99.90
35129;DHT22;21301;43.626;10.580;2023-04-24T10:20:24;18.50;99.90
35129;DHT22;21301;43.626;10.580;2023-04-24T10:22:51;19.00;99.90
35129;DHT22;21301;43.626;10.580;2023-04-24T10:25:26;19.00;99.90
35129;DHT22;21301;43.626;10.580;2023-04-24T10:27:53;18.90;99.90
35129;DHT22;21301;43.626;10.580;2023-04-24T10:30:23;18.40;99.90
35129;DHT22;21301;43.626;10.580;2023-04-24T10:32:49;18.80;99.90
35129;DHT22;21301;43.626;10.580;2023-04-24T10:35:15;18.80;99.90
35129;DHT22;21301;43.626;10.580;2023-04-24T10:37:45;19.10;99.90
35129;DHT22;21301;43.626;10.580;2023-04-24T10:40:12;18.80;99.90
35129;DHT22;21301;43.626;10.580;2023-04-24T10:42:41;19.10;99.90
35129;DHT22;21301;43.626;10.580;2023-04-24T10:45:20;19.20;99.90
35129;DHT22;21301;43.626;10.580;2023-04-24T10:48:02;19.40;99.90
35129;DHT22;21301;43.626;10.580;2023-04-24T10:50:41;19.60;99.90
35129;DHT22;21301;43.626;10.580;2023-04-24T10:53:12;19.60;99.90
35129;DHT22;21301;43.626;10.580;2023-04-24T10:55:42;19.50;99.90
35129;DHT22;21301;43.626;10.580;2023-04-24T10:58:09;19.80;99.90
35129;DHT22;21301;43.626;10.580;2023-04-24T11:00:40;19.90;99.90
35129;DHT22;21301;43.626;10.580;2023-04-24T11:03:30;20.00;99.90
35129;DHT22;21301;43.626;10.580;2023-04-24T11:08:40;20.30;99.90
35129;DHT22;21301;43.626;10.580;2023-04-24T11:11:10;20.30;99.90
35129;DHT22;21301;43.626;10.580;2023-04-24T11:16:34;19.60;99.90
35129;DHT22;21301;43.626;10.580;2023-04-24T11:19:36;19.70;99.90
35129;DHT22;21301;43.626;10.580;2023-04-24T11:22:03;19.80;99.90
35129;DHT22;21301;43.626;10.580;2023-04-24T11:27:16;19.80;99.90
35129;DHT22;21301;43.626;10.580;2023-04-24T11:35:01;19.90;99.90
35129;DHT22;21301;43.626;10.580;2023-04-24T11:37:29;19.70;99.90
35129;DHT22;21301;43.626;10.580;2023-04-24T11:39:58;19.90;99.90
35129;DHT22;21301;43.626;10.580;2023-04-24T11:42:24;19.70;99.90
35129;DHT22;21301;43.626;10.580;2023-04-24T11:44:55;20.10;99.90
35129;DHT22;21301;43.626;10.580;2023-04-24T11:47:39;20.20;99.90
35129;DHT22;21301;43.626;10.580;2023-04-24T11:50:07;19.90;99.90
35129;DHT22;21301;43.626;10.580;2023-04-24T11:52:37;19.70;99.90
35129;DHT22;21301;43.626;10.580;2023-04-24T11:55:03;19.90;99.90
35129;DHT22;21301;43.626;10.580;2023-04-24T11:57:29;20.10;99.90
35129;DHT22;21301;43.626;10.580;2023-04-24T12:00:00;20.00;99.90
35129;DHT22;21301;43.626;10.580;2023-04-24T12:02:27;20.00;99.90
35129;DHT22;21301;43.626;10.580;2023-04-24T12:04:54;20.10;99.90
35129;DHT22;21301;43.626;10.580;2023-04-24T12:07:20;20.20;99.90
35129;DHT22;21301;43.626;10.580;2023-04-24T12:09:55;20.20;99.90
35129;DHT22;21301;43.626;10.580;2023-04-24T12:12:25;20.20;99.90
35129;DHT22;21301;43.626;10.580;2023-04-24T12:14:58;20.10;99.90
35129;DHT22;21301;43.626;10.580;2023-04-24T12:17:29;20.30;99.90
35129;DHT22;21301;43.626;10.580;2023-04-24T12:20:04;20.20;99.90
35129;DHT22;21301;43.626;10.580;2023-04-24T12:22:53;20.10;99.90
35129;DHT22;21301;43.626;10.580;2023-04-24T12:25:21;20.00;99.90
35129;DHT22;21301;43.626;10.580;2023-04-24T12:28:08;20.20;99.90
35129;DHT22;21301;43.626;10.580;2023-04-24T12:31:02;19.90;99.90
35129;DHT22;21301;43.626;10.580;2023-04-24T12:33:33;20.00;99.90
35129;DHT22;21301;43.626;10.580;2023-04-24T12:36:00;20.20;99.90
35129;DHT22;21301;43.626;10.580;2023-04-24T12:38:29;20.30;99.90
35129;DHT22;21301;43.626;10.580;2023-04-24T12:41:09;20.30;99.90
35129;DHT22;21301;43.626;10.580;2023-04-24T12:43:35;20.30;99.90
35129;DHT22;21301;43.626;10.580;2023-04-24T12:46:02;20.20;99.90
35129;DHT22;21301;43.626;10.580;2023-04-24T12:48:28;20.20;99.90
35129;DHT22;21301;43.626;10.580;2023-04-24T12:50:54;20.10;99.90
35129;DHT22;21301;43.626;10.580;2023-04-24T12:53:22;20.20;99.90
35129;DHT22;21301;43.626;10.580;2023-04-24T12:55:48;20.10;99.90
35129;DHT22;21301;43.626;10.580;2023-04-24T12:58:21;20.00;99.90
35129;DHT22;21301;43.626;10.580;2023-04-24T13:00:47;20.10;99.90
35129;DHT22;21301;43.626;10.580;2023-04-24T13:03:14;20.00;99.90
35129;DHT22;21301;43.626;10.580;2023-04-24T13:05:40;20.10;99.90
35129;DHT22;21301;43.626;10.580;2023-04-24T13:08:06;20.10;99.90
35129;DHT22;21301;43.626;10.580;2023-04-24T13:10:32;20.30;99.90
35129;DHT22;21301;43.626;10.580;2023-04-24T13:12:58;20.20;99.90
35129;DHT22;21301;43.626;10.580;2023-04-24T13:15:24;20.00;99.90
35129;DHT22;21301;43.626;10.580;2023-04-24T13:17:50;20.10;99.90
35129;DHT22;21301;43.626;10.580;2023-04-24T13:20:16;19.90;99.90
35129;DHT22;21301;43.626;10.580;2023-04-24T13:22:42;20.00;99.90
35129;DHT22;21301;43.626;10.580;2023-04-24T13:25:08;20.00;99.90
35129;DHT22;21301;43.626;10.580;2023-04-24T13:27:34;19.90;99.90
35129;DHT22;21301;43.626;10.580;2023-04-24T13:30:00;19.90;99.90
35129;DHT22;21301;43.626;10.580;2023-04-24T13:32:26;19.90;99.90
35129;DHT22;21301;43.626;10.580;2023-04-24T13:34:53;20.00;99.90
35129;DHT22;21301;43.626;10.580;2023-04-24T13:37:18;20.10;99.90
35129;DHT22;21301;43.626;10.580;2023-04-24T13:39:44;20.00;99.90
35129;DHT22;21301;43.626;10.580;2023-04-24T13:42:11;20.10;99.90
35129;DHT22;21301;43.626;10.580;2023-04-24T13:44:38;20.30;99.90
35129;DHT22;21301;43.626;10.580;2023-04-24T13:47:03;20.10;99.90
35129;DHT22;21301;43.626;10.580;2023-04-24T13:49:29;19.90;99.90
35129;DHT22;21301;43.626;10.580;2023-04-24T13:51:56;20.10;99.90
35129;DHT22;21301;43.626;10.580;2023-04-24T13:54:21;19.90;99.90
35129;DHT22;21301;43.626;10.580;2023-04-24T13:56:49;20.10;99.90
35129;DHT22;21301;43.626;10.580;2023-04-24T13:59:15;19.90;99.90
35129;DHT22;21301;43.626;10.580;2023-04-24T14:01:41;20.20;99.90
35129;DHT22;21301;43.626;10.580;2023-04-24T14:04:06;19.80;99.90
35129;DHT22;21301;43.626;10.580;2023-04-24T14:06:32;19.90;99.90
35129;DHT22;21301;43.626;10.580;2023-04-24T14:08:58;20.10;99.90
35129;DHT22;21301;43.626;10.580;2023-04-24T14:11:24;20.30;99.90
35129;DHT22;21301;43.626;10.580;2023-04-24T14:13:51;20.30;99.90
35129;DHT22;21301;43.626;10.580;2023-04-24T14:16:17;20.20;99.90
35129;DHT22;21301;43.626;10.580;2023-04-24T14:18:43;20.20;99.90
35129;DHT22;21301;43.626;10.580;2023-04-24T14:21:08;20.10;99.90
35129;DHT22;21301;43.626;10.580;2023-04-24T14:23:34;20.10;99.90
35129;DHT22;21301;43.626;10.580;2023-04-24T14:26:00;20.10;99.90
35129;DHT22;21301;43.626;10.580;2023-04-24T14:28:26;20.20;99.90
35129;DHT22;21301;43.626;10.580;2023-04-24T14:30:52;20.30;99.90
35129;DHT22;21301;43.626;10.580;2023-04-24T14:33:19;20.00;99.90
35129;DHT22;21301;43.626;10.580;2023-04-24T14:35:45;20.00;99.90
35129;DHT22;21301;43.626;10.580;2023-04-24T14:38:11;20.00;99.90
35129;DHT22;21301;43.626;10.580;2023-04-24T14:40:37;19.80;99.90
35129;DHT22;21301;43.626;10.580;2023-04-24T14:43:03;20.00;99.90
35129;DHT22;21301;43.626;10.580;2023-04-24T14:45:29;19.90;99.90
35129;DHT22;21301;43.626;10.580;2023-04-24T14:47:56;20.00;99.90
35129;DHT22;21301;43.626;10.580;2023-04-24T14:50:22;20.00;99.90
35129;DHT22;21301;43.626;10.580;2023-04-24T14:52:48;19.90;99.90
35129;DHT22;21301;43.626;10.580;2023-04-24T14:55:13;19.70;99.90
35129;DHT22;21301;43.626;10.580;2023-04-24T14:57:40;19.80;99.90
35129;DHT22;21301;43.626;10.580;2023-04-24T15:00:07;19.80;99.90
35129;DHT22;21301;43.626;10.580;2023-04-24T15:02:36;20.00;99.90
35129;DHT22;21301;43.626;10.580;2023-04-24T15:05:06;19.80;99.90
35129;DHT22;21301;43.626;10.580;2023-04-24T15:07:32;20.00;99.90
35129;DHT22;21301;43.626;10.580;2023-04-24T15:09:58;20.10;99.90
35129;DHT22;21301;43.626;10.580;2023-04-24T15:12:24;19.90;99.90
35129;DHT22;21301;43.626;10.580;2023-04-24T15:14:50;19.80;99.90
35129;DHT22;21301;43.626;10.580;2023-04-24T15:17:16;19.70;99.90
35129;DHT22;21301;43.626;10.580;2023-04-24T15:19:42;19.70;99.90
35129;DHT22;21301;43.626;10.580;2023-04-24T15:22:07;19.60;99.90
35129;DHT22;21301;43.626;10.580;2023-04-24T15:24:33;19.90;99.90
35129;DHT22;21301;43.626;10.580;2023-04-24T15:26:59;19.70;99.90
35129;DHT22;21301;43.626;10.580;2023-04-24T15:29:27;19.70;99.90
35129;DHT22;21301;43.626;10.580;2023-04-24T15:31:53;19.90;99.90
35129;DHT22;21301;43.626;10.580;2023-04-24T15:34:19;20.00;99.90
35129;DHT22;21301;43.626;10.580;2023-04-24T15:36:45;19.90;99.90
35129;DHT22;21301;43.626;10.580;2023-04-24T15:39:11;19.70;99.90
35129;DHT22;21301;43.626;10.580;2023-04-24T15:41:37;19.80;99.90